Latest Weather Observations for Mackay Airport

IDQ60801

Issued at 4:02 am EST Wednesday 23 September 2020 (issued every 10 minutes, with the page automatically refreshed every 10 minutes)

About weather observations | Map of weather stations | Latest weather observations for QLD | Other Formats
Station Details ID: 033045 Name: MACKAY AERO Lat: -21.17 Lon: 149.18 Height: 4.7 m
Data from the previous 72 hours. | See also: Recent months at Mackay Airport
Date/Time
EST
Temp
°C
App
Temp
°C
Dew
Point
°C
Rel
Hum
%
Delta-T
°C
Wind Press
QNH
hPa
Press
MSL
hPa
Rain since
9am
mm
Dir  Spd
km/h
Gust
km/h
Spd
kts
Gust
kts
23/04:00am 19.5 22.5 18.5 94 0.6 CALM 0 0 0 0 1015.0 1015.0 0.0
23/03:57am 19.5 22.5 18.5 94 0.6 CALM 0 0 0 0 1015.0 1015.0 0.0
23/03:30am 19.6 22.7 18.6 94 0.6 CALM 0 0 0 0 1014.9 1014.9 0.0
23/03:00am 19.7 22.8 18.7 94 0.6 CALM 0 0 0 0 1015.1 1015.1 0.0
23/02:32am 19.9 22.7 18.9 94 0.6 WSW 2 6 1 3 1015.5 1015.5 0.0
23/02:30am 19.9 22.3 18.9 94 0.6 WSW 4 6 2 3 1015.5 1015.5 0.0
23/02:18am 19.7 21.8 18.9 95 0.5 WSW 6 6 3 3 1015.6 1015.6 0.0
23/02:00am 19.7 21.6 18.9 95 0.5 WSW 7 7 4 4 1015.7 1015.7 0.0
23/01:30am 20.1 22.3 19.3 95 0.5 WSW 6 7 3 4 1015.8 1015.8 0.0
23/01:00am 20.5 22.7 19.2 92 0.8 NNW 6 9 3 5 1016.1 1016.1 0.0
23/12:30am 21.6 24.4 20.4 93 0.8 NW 6 7 3 4 1016.2 1016.2 0.0
23/12:19am 21.7 24.4 20.3 92 0.9 NW 6 7 3 4 1016.4 1016.4 0.0
23/12:00am 21.9 24.9 20.9 94 0.6 N 6 9 3 5 1016.5 1016.5 0.0
 
Date/Time
EST
Temp
°C
App
Temp
°C
Dew
Point
°C
Rel
Hum
%
Delta-T
°C
Wind Press
QNH
hPa
Press
MSL
hPa
Rain since
9am
mm
Dir  Spd
km/h
Gust
km/h
Spd
kts
Gust
kts
22/11:44pm 21.5 24.0 20.3 93 0.8 N 7 9 4 5 1016.7 1016.7 0.0
22/11:30pm 21.6 24.1 20.2 92 0.9 N 7 9 4 5 1016.7 1016.7 0.0
22/11:00pm 21.7 24.2 20.2 91 1.0 NNE 7 9 4 5 1016.9 1016.9 0.0
22/10:30pm 22.1 24.4 20.6 91 1.0 NNE 9 13 5 7 1017.2 1017.2 0.0
22/10:00pm 22.2 24.1 20.5 90 1.1 N 11 15 6 8 1017.2 1017.2 0.0
22/09:30pm 22.4 24.1 20.9 91 1.0 NNE 13 15 7 8 1017.1 1017.1 0.0
22/09:18pm 22.0 24.2 20.5 91 1.0 N 9 13 5 7 1017.2 1017.2 0.0
22/09:00pm 22.1 24.8 20.6 91 1.0 N 7 11 4 6 1017.2 1017.2 0.0
22/08:51pm 21.9 24.4 20.2 90 1.1 N 7 9 4 5 1017.1 1017.1 0.0
22/08:30pm 22.5 24.9 20.8 90 1.1 N 9 13 5 7 1017.1 1017.1 0.0
22/08:00pm 22.7 24.7 20.8 89 1.2 N 11 15 6 8 1016.9 1016.9 0.0
22/07:30pm 22.8 24.5 20.9 89 1.2 N 13 17 7 9 1016.5 1016.5 0.0
22/07:00pm 23.2 24.9 20.9 87 1.5 NNE 13 17 7 9 1016.2 1016.2 0.0
22/06:30pm 23.3 24.9 20.8 86 1.6 NNE 13 17 7 9 1015.9 1015.9 0.0
22/06:00pm 23.8 24.5 20.5 82 2.1 N 17 20 9 11 1015.4 1015.4 0.0
22/05:30pm 24.7 25.2 20.0 75 3.0 NE 17 22 9 12 1015.0 1015.0 0.0
22/05:00pm 25.4 25.4 19.8 71 3.6 NE 19 24 10 13 1014.7 1014.7 0.0
22/04:30pm 25.9 25.0 19.8 69 4.0 NE 24 30 13 16 1014.2 1014.2 0.0
22/04:00pm 26.3 25.5 19.2 65 4.6 NE 22 30 12 16 1014.2 1014.2 0.0
22/03:30pm 26.6 25.8 19.2 64 4.8 NE 22 28 12 15 1014.2 1014.2 0.0
22/03:00pm 27.4 26.9 20.7 67 4.4 NE 24 30 13 16 1014.1 1014.1 0.0
22/02:30pm 27.7 27.0 20.3 64 4.9 NE 24 30 13 16 1014.3 1014.3 0.0
22/02:00pm 27.7 27.2 20.8 66 4.6 ENE 24 30 13 16 1014.7 1014.7 0.0
22/01:30pm 27.0 26.7 20.3 66 4.4 NE 22 28 12 15 1015.0 1015.0 0.0
22/01:00pm 27.2 26.2 20.5 67 4.4 ENE 26 32 14 17 1015.4 1015.4 0.0
22/12:30pm 27.5 26.9 20.6 66 4.5 ENE 24 32 13 17 1015.8 1015.8 0.0
22/12:00pm 27.3 26.7 20.4 66 4.5 NE 24 32 13 17 1016.2 1016.2 0.0
22/11:30am 27.8 27.6 20.6 65 4.7 NE 22 28 12 15 1016.7 1016.7 0.0
22/11:00am 27.3 26.9 20.1 64 4.7 ENE 22 30 12 16 1017.2 1017.2 0.0
22/10:30am 27.3 27.4 20.4 66 4.5 NE 20 24 11 13 1017.7 1017.7 0.0
22/10:00am 26.8 27.3 20.9 70 3.9 ENE 19 22 10 12 1018.1 1018.1 0.0
22/09:30am 26.2 28.1 20.5 71 3.7 E 11 17 6 9 1018.3 1018.3 0.0
22/09:15am 25.7 27.7 20.7 74 3.3 ENE 11 15 6 8 1018.4 1018.4 0.0
22/09:00am 25.3 28.5 21.2 78 2.7 ENE 6 13 3 7 1018.5 1018.5 0.0
22/08:58am 25.1 28.1 20.8 77 2.8 NE 6 11 3 6 1018.5 1018.5 0.0
22/08:30am 24.3 26.6 20.6 80 2.4 NNE 9 13 5 7 1018.7 1018.7 0.0
22/08:00am 23.2 26.8 21.3 89 1.2 SW 4 9 2 5 1018.4 1018.4 0.0
22/07:30am 22.6 26.7 21.6 94 0.7 SSW 2 7 1 4 1018.2 1018.2 0.0
22/07:00am 22.0 25.0 21.2 95 0.5 SW 7 9 4 5 1017.8 1017.8 0.0
22/06:30am 21.6 24.4 20.9 96 0.5 SW 7 11 4 6 1017.2 1017.2 0.0
22/06:00am 21.1 23.8 20.3 95 0.5 NE 6 6 3 3 1016.6 1016.6 0.0
22/05:49am 21.2 24.0 20.5 96 0.5 NE 6 7 3 4 1016.4 1016.4 0.0
22/05:30am 21.4 24.3 20.7 96 0.5 NE 6 7 3 4 1016.2 1016.2 0.0
22/05:17am 21.0 23.7 20.2 95 0.5 NE 6 7 3 4 1016.1 1016.1 0.0
22/05:08am 21.3 24.1 20.5 95 0.5 NE 6 7 3 4 1016.1 1016.1 0.0
22/05:00am 21.3 23.8 20.3 94 0.6 NE 7 7 4 4 1016.0 1016.0 0.0
22/04:51am 21.0 23.5 19.8 93 0.8 NE 6 7 3 4 1015.9 1015.9 0.0
22/04:45am 21.5 24.7 20.5 94 0.6 NE 4 7 2 4 1015.9 1015.9 0.0
22/04:30am 21.6 24.4 20.4 93 0.8 NE 6 7 3 4 1015.8 1015.8 0.0
22/04:00am 22.1 24.9 20.9 93 0.8 ENE 7 9 4 5 1015.7 1015.7 0.0
22/03:30am 22.3 25.1 20.9 92 0.9 NE 7 9 4 5 1015.7 1015.7 0.0
22/03:00am 22.5 25.6 21.1 92 0.9 NE 6 9 3 5 1015.7 1015.7 0.0
22/02:30am 22.6 25.6 21.2 92 0.9 ENE 7 9 4 5 1015.9 1015.9 0.0
22/02:00am 22.6 25.6 21.2 92 0.9 ENE 7 9 4 5 1016.0 1016.0 0.0
22/01:30am 22.6 25.6 21.2 92 0.9 ENE 7 9 4 5 1016.2 1016.2 0.0
22/01:01am 22.7 25.7 21.3 92 0.9 NE 7 9 4 5 1016.3 1016.3 0.0
22/01:00am 22.7 25.7 21.3 92 0.9 NE 7 9 4 5 1016.2 1016.2 0.0
22/12:46am 22.7 25.4 21.3 92 0.9 NE 9 15 5 8 1016.3 1016.3 0.0
22/12:30am 22.6 25.6 21.2 92 0.9 NE 7 7 4 4 1016.4 1016.4 0.0
22/12:00am 22.4 25.3 21.0 92 0.9 NE 7 9 4 5 1016.2 1016.2 0.0
 
Date/Time
EST
Temp
°C
App
Temp
°C
Dew
Point
°C
Rel
Hum
%
Delta-T
°C
Wind Press
QNH
hPa
Press
MSL
hPa
Rain since
9am
mm
Dir  Spd
km/h
Gust
km/h
Spd
kts
Gust
kts
21/11:30pm 22.5 25.4 21.1 92 0.9 NE 7 11 4 6 1016.3 1016.3 0.0
21/11:00pm 22.4 25.4 21.2 93 0.8 NE 7 7 4 4 1016.6 1016.6 0.0
21/10:34pm 22.0 24.9 21.0 94 0.7 NE 7 7 4 4 1016.6 1016.6 0.0
21/10:30pm 22.0 24.9 21.0 94 0.7 NE 7 7 4 4 1016.6 1016.6 0.0
21/10:00pm 21.6 24.5 20.6 94 0.6 NE 6 6 3 3 1016.7 1016.7 0.0
21/09:30pm 21.6 24.1 19.9 90 1.1 NE 6 7 3 4 1016.7 1016.7 0.0
21/09:00pm 22.2 24.9 20.7 91 1.0 NE 7 9 4 5 1016.4 1016.4 0.0
21/08:30pm 22.3 25.0 20.6 90 1.1 NE 7 9 4 5 1016.3 1016.3 0.0
21/08:23pm 22.2 24.4 20.5 90 1.1 NE 9 9 5 5 1016.2 1016.2 0.0
21/08:00pm 22.2 24.7 20.3 89 1.2 NE 7 9 4 5 1016.1 1016.1 0.0
21/07:39pm 22.4 24.2 20.3 88 1.4 ENE 11 17 6 9 1015.9 1015.9 0.0
21/07:30pm 22.6 24.2 20.7 89 1.2 ENE 13 15 7 8 1015.7 1015.7 0.0
21/07:27pm 22.6 24.2 20.7 89 1.2 ENE 13 17 7 9 1015.7 1015.7 0.0
21/07:00pm 22.6 23.7 20.5 88 1.4 ENE 15 19 8 10 1015.3 1015.3 0.0
21/06:30pm 22.7 23.5 20.6 88 1.4 ENE 17 20 9 11 1015.1 1015.1 0.0
21/06:00pm 22.9 23.7 20.6 87 1.5 ENE 17 20 9 11 1014.7 1014.7 0.0
21/05:30pm 23.3 23.4 20.4 84 1.9 ENE 20 24 11 13 1014.5 1014.5 0.0
21/05:10pm 23.7 23.9 20.6 83 2.0 ENE 20 26 11 14 1014.2 1014.2 0.0
21/05:00pm 23.8 23.9 20.3 81 2.3 ENE 20 26 11 14 1014.2 1014.2 0.0
21/04:57pm 24.0 24.2 20.5 81 2.3 ENE 20 26 11 14 1014.2 1014.2 0.0
21/04:30pm 24.2 23.5 20.3 79 2.5 ENE 24 28 13 15 1014.1 1014.1 0.0
21/04:00pm 24.7 24.8 20.4 77 2.8 E 20 26 11 14 1014.4 1014.4 0.0
21/03:30pm 24.9 24.9 20.2 75 3.1 E 20 24 11 13 1014.7 1014.7 0.0
21/03:00pm 25.5 25.7 20.5 74 3.3 E 20 24 11 13 1014.9 1014.9 0.0
21/02:30pm 25.4 25.4 20.2 73 3.4 E 20 24 11 13 1015.1 1015.1 0.0
21/02:00pm 25.8 25.9 19.9 70 3.8 ENE 19 26 10 14 1015.6 1015.6 0.0
21/01:30pm 26.3 26.1 20.6 71 3.7 E 22 28 12 15 1016.0 1016.0 0.0
21/01:00pm 25.4 24.3 19.5 70 3.8 E 24 30 13 16 1016.1 1016.1 0.0
21/12:30pm 26.6 26.1 20.0 67 4.3 E 22 28 12 15 1016.5 1016.5 0.0
21/12:00pm 26.3 26.3 20.2 69 4.0 E 20 28 11 15 1017.0 1017.0 0.0
21/11:30am 26.0 26.2 19.4 67 4.3 E 17 22 9 12 1017.4 1017.4 0.0
21/11:00am 25.7 25.9 19.3 67 4.1 ESE 17 22 9 12 1017.9 1017.9 0.0
21/10:30am 25.7 26.2 20.0 71 3.7 ESE 17 22 9 12 1018.2 1018.2 0.0
21/10:00am 25.5 26.1 19.4 69 3.9 E 15 20 8 11 1018.2 1018.2 0.0
21/09:30am 24.6 25.3 18.8 70 3.7 E 13 20 7 11 1018.2 1018.2 0.0
21/09:04am 24.1 25.8 19.4 75 3.0 ENE 9 19 5 10 1018.1 1018.1 0.0
21/09:00am 23.5 25.7 19.2 77 2.7 NE 6 13 3 7 1018.1 1018.1 0.0
21/08:54am 23.1 24.8 18.6 76 2.8 N 7 11 4 6 1018.1 1018.1 0.0
21/08:30am 22.6 24.7 19.0 80 2.3 S 6 9 3 5 1018.2 1018.2 0.0
21/08:00am 21.1 22.7 19.2 89 1.2 SW 9 13 5 7 1017.7 1017.7 0.0
21/07:30am 19.8 21.3 19.0 95 0.5 WSW 9 13 5 7 1017.3 1017.3 0.0
21/07:00am 18.7 20.3 18.2 97 0.3 WSW 7 9 4 5 1016.9 1016.9 0.0
21/06:56am 18.6 20.3 18.1 97 0.3 WSW 6 7 3 4 1016.9 1016.9 0.0
21/06:50am 18.3 19.9 17.8 97 0.3 WSW 6 7 3 4 1016.7 1016.7 0.0
21/06:30am 17.3 18.9 16.8 97 0.3 WNW 4 7 2 4 1016.5 1016.5 0.0
21/06:00am 16.8 17.8 16.3 97 0.3 WNW 6 7 3 4 1016.2 1016.2 0.0
21/05:45am 16.7 17.4 16.2 97 0.3 WNW 7 9 4 5 1016.2 1016.2 0.0
21/05:44am 16.6 17.3 16.0 96 0.4 W 7 9 4 5 1016.2 1016.2 0.0
21/05:30am 16.5 17.1 15.9 96 0.4 WSW 7 9 4 5 1016.0 1016.0 0.0
21/05:00am 17.4 18.6 16.9 97 0.3 W 6 7 3 4 1015.9 1015.9 0.0
21/04:30am 17.3 18.2 16.7 96 0.4 W 7 11 4 6 1015.6 1015.6 0.0
21/04:22am 17.1 18.0 16.5 96 0.4 WSW 7 9 4 5 1015.6 1015.6 0.0
21/04:00am 17.5 18.7 16.9 96 0.4 W 6 7 3 4 1015.3 1015.3 0.0
21/03:33am 17.6 18.7 17.0 96 0.4 WSW 7 9 4 5 1015.3 1015.3 0.0
21/03:30am 17.7 19.0 17.1 96 0.4 WSW 6 7 3 4 1015.3 1015.3 0.0
21/03:13am 17.6 18.3 17.0 96 0.4 SW 9 11 5 6 1015.4 1015.4 0.0
21/03:00am 17.6 18.2 16.8 95 0.5 WSW 9 11 5 6 1015.4 1015.4 0.0
21/02:30am 18.2 19.6 17.4 95 0.5 WNW 6 7 3 4 1015.4 1015.4 0.0
21/02:27am 18.2 19.6 17.4 95 0.5 WNW 6 7 3 4 1015.4 1015.4 0.0
21/02:00am 18.4 19.9 17.6 95 0.5 WNW 6 7 3 4 1015.7 1015.7 0.0
21/01:30am 18.6 20.0 17.4 93 0.7 W 6 7 3 4 1015.8 1015.8 0.0
21/01:00am 19.1 20.2 17.9 93 0.7 W 9 9 5 5 1016.1 1016.1 0.0
21/12:30am 19.3 20.8 18.0 92 0.8 WSW 7 9 4 5 1016.4 1016.4 0.0
21/12:25am 19.4 20.9 18.1 92 0.8 WSW 7 9 4 5 1016.5 1016.5 0.0
21/12:00am 19.7 20.8 18.0 90 1.0 W 9 9 5 5 1016.7 1016.7 0.0
 
Date/Time
EST
Temp
°C
App
Temp
°C
Dew
Point
°C
Rel
Hum
%
Delta-T
°C
Wind Press
QNH
hPa
Press
MSL
hPa
Rain since
9am
mm
Dir  Spd
km/h
Gust
km/h
Spd
kts
Gust
kts
20/11:48pm 20.0 21.5 18.1 89 1.2 WSW 7 9 4 5 1016.8 1016.8 0.0
20/11:30pm 20.7 22.4 18.1 85 1.6 ENE 6 9 3 5 1016.9 1016.9 0.0
20/11:11pm 21.3 23.2 18.9 86 1.5 E 7 11 4 6 1017.1 1017.1 0.0
20/11:00pm 21.5 23.1 19.1 86 1.5 E 9 13 5 7 1017.1 1017.1 0.0
20/10:30pm 21.8 23.0 19.0 84 1.8 ENE 11 15 6 8 1017.1 1017.1 0.0
20/10:00pm 21.8 22.6 19.0 84 1.8 E 13 15 7 8 1017.4 1017.4 0.0
20/09:30pm 21.6 22.4 19.0 85 1.6 ENE 13 15 7 8 1017.1 1017.1 0.0
20/09:00pm 21.8 23.1 19.4 86 1.5 E 11 13 6 7 1017.3 1017.3 0.0
20/08:54pm 21.9 23.2 19.3 85 1.7 E 11 13 6 7 1017.3 1017.3 0.0
20/08:30pm 21.8 23.1 19.2 85 1.6 E 11 15 6 8 1017.1 1017.1 0.0
20/08:06pm 21.8 23.1 19.4 86 1.5 E 11 13 6 7 1016.7 1016.7 0.0
20/08:00pm 21.8 23.1 19.2 85 1.6 E 11 15 6 8 1016.7 1016.7 0.0
20/07:54pm 21.8 22.7 19.2 85 1.6 E 13 15 7 8 1016.6 1016.6 0.0
20/07:30pm 21.9 23.0 19.6 87 1.5 ESE 13 17 7 9 1016.2 1016.2 0.0
20/07:00pm 21.8 22.8 19.4 86 1.5 ESE 13 17 7 9 1015.9 1015.9 0.0
20/06:32pm 21.9 23.3 19.5 86 1.5 ESE 11 15 6 8 1015.6 1015.6 0.0
20/06:30pm 21.9 22.9 19.5 86 1.5 E 13 15 7 8 1015.6 1015.6 0.0
20/06:00pm 22.1 22.6 19.3 84 1.8 E 15 19 8 10 1015.3 1015.3 0.0
20/05:30pm 22.6 22.2 19.0 80 2.3 ESE 19 22 10 12 1015.1 1015.1 0.0
20/05:00pm 23.1 22.8 19.1 78 2.5 ESE 19 24 10 13 1014.9 1014.9 0.0
20/04:30pm 23.7 23.2 19.0 75 3.0 E 20 26 11 14 1014.7 1014.7 0.0
20/04:00pm 24.0 22.7 19.1 74 3.1 E 24 26 13 14 1014.5 1014.5 0.0
20/03:30pm 24.4 23.8 19.7 75 3.0 E 22 28 12 15 1014.5 1014.5 0.0
20/03:00pm 24.6 23.4 19.2 72 3.5 E 24 30 13 16 1014.8 1014.8 0.0
20/02:30pm 24.9 23.3 19.1 70 3.7 ESE 26 32 14 17 1015.1 1015.1 0.0
20/02:00pm 25.2 23.6 19.3 70 3.8 ESE 26 32 14 17 1015.5 1015.5 0.0
20/01:30pm 25.3 24.1 19.2 69 3.9 ESE 24 30 13 16 1016.0 1016.0 0.0
20/01:00pm 24.7 23.2 18.6 69 3.9 ESE 24 30 13 16 1016.4 1016.4 0.0
20/12:30pm 25.0 23.7 19.1 70 3.8 ESE 24 30 13 16 1016.5 1016.5 0.0
20/12:00pm 25.4 24.3 19.5 70 3.8 ESE 24 30 13 16 1016.8 1016.8 0.0
20/11:30am 24.7 23.9 19.3 72 3.5 ESE 22 28 12 15 1017.4 1017.4 0.0
20/11:00am 25.2 24.7 18.6 67 4.2 E 19 24 10 13 1018.1 1018.1 0.0
20/10:30am 24.6 24.3 19.2 72 3.5 ESE 19 24 10 13 1018.5 1018.5 0.0
20/10:00am 24.4 24.3 18.8 71 3.6 ESE 17 20 9 11 1018.7 1018.7 0.0
20/09:30am 23.9 24.8 18.5 72 3.4 SE 11 17 6 9 1019.1 1019.1 0.0
20/09:00am 23.3 24.3 18.6 75 3.0 SE 11 15 6 8 1018.9 1018.9 1.2
20/08:30am 23.3 24.4 18.0 72 3.3 SE 9 13 5 7 1018.5 1018.5 1.2
20/08:00am 22.2 23.7 18.8 81 2.1 SSW 9 11 5 6 1018.3 1018.3 1.2
20/07:30am 20.2 22.1 18.5 90 1.1 S 6 7 3 4 1017.9 1017.9 1.2
20/07:00am 19.1 20.6 18.1 94 0.6 S 7 9 4 5 1017.9 1017.9 1.2
20/06:30am 18.4 20.1 17.2 93 0.7 WSW 4 6 2 3 1017.9 1017.9 1.2
20/06:00am 18.3 19.6 17.1 93 0.7 WSW 6 7 3 4 1017.9 1017.9 1.2
20/05:30am 18.5 18.6 17.5 94 0.6 W 13 19 7 10 1017.9 1017.9 1.2
20/05:00am 18.3 19.1 17.3 94 0.6 W 9 15 5 8 1017.3 1017.3 1.2
20/04:30am 18.3 18.3 17.3 94 0.6 SW 13 13 7 7 1017.1 1017.1 1.2

Other formats

Comma delimited format used in spreadsheet applications
http://www.bom.gov.au/fwo/IDQ60801/IDQ60801.95367.axf

JavaScript Object Notation format (JSON) in row-major order
http://www.bom.gov.au/fwo/IDQ60801/IDQ60801.95367.json

Data quality

Most of these data are generated automatically and are frequently updated. Quality checks on data are not normally performed. It is possible for incorrect values to appear. Refer to information at About Latest Weather Observations and please check the disclaimer before using these data.